sensor_id;sensor_type;location;lat;lon;timestamp;P1;durP1;ratioP1;P2;durP2;ratioP2
50012;SDS011;35901;48.694;9.476;2024-01-30T00:00:04;23.13;;;16.13;;
50012;SDS011;35901;48.694;9.476;2024-01-30T00:02:33;22.70;;;15.07;;
50012;SDS011;35901;48.694;9.476;2024-01-30T00:04:59;20.70;;;15.37;;
50012;SDS011;35901;48.694;9.476;2024-01-30T00:07:24;18.83;;;14.60;;
50012;SDS011;35901;48.694;9.476;2024-01-30T00:09:50;19.90;;;15.93;;
50012;SDS011;35901;48.694;9.476;2024-01-30T00:12:16;22.93;;;15.23;;
50012;SDS011;35901;48.694;9.476;2024-01-30T00:14:42;21.23;;;15.37;;
50012;SDS011;35901;48.694;9.476;2024-01-30T00:17:10;22.20;;;15.20;;
50012;SDS011;35901;48.694;9.476;2024-01-30T00:19:36;22.60;;;16.83;;
50012;SDS011;35901;48.694;9.476;2024-01-30T00:22:02;23.80;;;16.60;;
50012;SDS011;35901;48.694;9.476;2024-01-30T00:24:27;22.33;;;17.07;;
50012;SDS011;35901;48.694;9.476;2024-01-30T00:26:53;25.43;;;19.13;;
50012;SDS011;35901;48.694;9.476;2024-01-30T00:29:19;23.87;;;17.37;;
50012;SDS011;35901;48.694;9.476;2024-01-30T00:31:45;22.00;;;17.30;;
50012;SDS011;35901;48.694;9.476;2024-01-30T00:34:11;21.63;;;16.50;;
50012;SDS011;35901;48.694;9.476;2024-01-30T00:36:37;20.43;;;16.43;;
50012;SDS011;35901;48.694;9.476;2024-01-30T00:39:03;20.10;;;15.00;;
50012;SDS011;35901;48.694;9.476;2024-01-30T00:41:32;23.30;;;16.53;;
50012;SDS011;35901;48.694;9.476;2024-01-30T00:43:57;24.53;;;16.77;;
50012;SDS011;35901;48.694;9.476;2024-01-30T00:46:23;20.90;;;16.67;;
50012;SDS011;35901;48.694;9.476;2024-01-30T00:48:49;22.70;;;15.60;;
50012;SDS011;35901;48.694;9.476;2024-01-30T00:51:14;23.53;;;16.40;;
50012;SDS011;35901;48.694;9.476;2024-01-30T00:53:40;22.77;;;15.80;;
50012;SDS011;35901;48.694;9.476;2024-01-30T00:56:07;20.03;;;14.47;;
50012;SDS011;35901;48.694;9.476;2024-01-30T00:58:33;22.33;;;15.70;;
50012;SDS011;35901;48.694;9.476;2024-01-30T01:00:59;19.90;;;15.77;;
50012;SDS011;35901;48.694;9.476;2024-01-30T01:03:24;17.17;;;13.57;;
50012;SDS011;35901;48.694;9.476;2024-01-30T01:05:50;21.83;;;15.20;;
50012;SDS011;35901;48.694;9.476;2024-01-30T01:08:16;19.40;;;14.93;;
50012;SDS011;35901;48.694;9.476;2024-01-30T01:10:41;19.80;;;14.73;;
50012;SDS011;35901;48.694;9.476;2024-01-30T01:13:07;20.37;;;15.37;;
50012;SDS011;35901;48.694;9.476;2024-01-30T01:15:33;21.70;;;15.67;;
50012;SDS011;35901;48.694;9.476;2024-01-30T01:17:59;19.97;;;16.07;;
50012;SDS011;35901;48.694;9.476;2024-01-30T01:20:24;18.03;;;13.47;;
50012;SDS011;35901;48.694;9.476;2024-01-30T01:22:50;23.03;;;16.07;;
50012;SDS011;35901;48.694;9.476;2024-01-30T01:25:17;22.50;;;16.13;;
50012;SDS011;35901;48.694;9.476;2024-01-30T01:27:43;20.70;;;15.80;;
50012;SDS011;35901;48.694;9.476;2024-01-30T01:30:16;20.37;;;15.20;;
50012;SDS011;35901;48.694;9.476;2024-01-30T01:32:47;20.27;;;15.60;;
50012;SDS011;35901;48.694;9.476;2024-01-30T01:35:23;19.90;;;14.57;;
50012;SDS011;35901;48.694;9.476;2024-01-30T01:37:59;22.83;;;14.83;;
50012;SDS011;35901;48.694;9.476;2024-01-30T01:40:46;15.03;;;12.27;;
50012;SDS011;35901;48.694;9.476;2024-01-30T01:43:12;19.70;;;14.97;;
50012;SDS011;35901;48.694;9.476;2024-01-30T01:45:38;18.90;;;14.87;;
50012;SDS011;35901;48.694;9.476;2024-01-30T01:48:03;18.53;;;14.00;;
50012;SDS011;35901;48.694;9.476;2024-01-30T01:50:30;18.33;;;13.70;;
50012;SDS011;35901;48.694;9.476;2024-01-30T01:52:55;22.23;;;15.90;;
50012;SDS011;35901;48.694;9.476;2024-01-30T01:55:21;23.30;;;16.33;;
50012;SDS011;35901;48.694;9.476;2024-01-30T01:57:50;22.80;;;16.77;;
50012;SDS011;35901;48.694;9.476;2024-01-30T02:00:17;18.53;;;14.47;;
50012;SDS011;35901;48.694;9.476;2024-01-30T02:02:45;22.83;;;16.00;;
50012;SDS011;35901;48.694;9.476;2024-01-30T02:05:12;19.47;;;14.37;;
50012;SDS011;35901;48.694;9.476;2024-01-30T02:07:37;21.97;;;16.13;;
50012;SDS011;35901;48.694;9.476;2024-01-30T02:10:04;19.97;;;15.87;;
50012;SDS011;35901;48.694;9.476;2024-01-30T02:12:30;21.93;;;15.67;;
50012;SDS011;35901;48.694;9.476;2024-01-30T02:14:55;18.27;;;14.13;;
50012;SDS011;35901;48.694;9.476;2024-01-30T02:17:21;20.97;;;14.60;;
50012;SDS011;35901;48.694;9.476;2024-01-30T02:19:48;17.27;;;14.07;;
50012;SDS011;35901;48.694;9.476;2024-01-30T02:22:14;21.07;;;15.60;;
50012;SDS011;35901;48.694;9.476;2024-01-30T02:24:40;17.60;;;12.93;;
50012;SDS011;35901;48.694;9.476;2024-01-30T02:27:05;17.07;;;12.37;;
50012;SDS011;35901;48.694;9.476;2024-01-30T02:29:31;16.27;;;11.47;;
50012;SDS011;35901;48.694;9.476;2024-01-30T02:31:57;19.20;;;13.13;;
50012;SDS011;35901;48.694;9.476;2024-01-30T02:34:23;15.13;;;12.00;;
50012;SDS011;35901;48.694;9.476;2024-01-30T02:36:49;17.37;;;13.23;;
50012;SDS011;35901;48.694;9.476;2024-01-30T02:39:15;17.63;;;13.23;;
50012;SDS011;35901;48.694;9.476;2024-01-30T02:41:40;19.50;;;14.13;;
50012;SDS011;35901;48.694;9.476;2024-01-30T02:44:06;20.40;;;14.47;;
50012;SDS011;35901;48.694;9.476;2024-01-30T02:46:32;20.20;;;13.77;;
50012;SDS011;35901;48.694;9.476;2024-01-30T02:48:57;20.27;;;14.70;;
50012;SDS011;35901;48.694;9.476;2024-01-30T02:51:23;19.27;;;14.37;;
50012;SDS011;35901;48.694;9.476;2024-01-30T02:53:49;21.67;;;14.70;;
50012;SDS011;35901;48.694;9.476;2024-01-30T02:56:14;20.63;;;15.40;;
50012;SDS011;35901;48.694;9.476;2024-01-30T02:58:40;21.13;;;15.37;;
50012;SDS011;35901;48.694;9.476;2024-01-30T03:01:06;19.17;;;14.83;;
50012;SDS011;35901;48.694;9.476;2024-01-30T03:03:32;20.80;;;15.80;;
50012;SDS011;35901;48.694;9.476;2024-01-30T03:05:59;19.03;;;13.83;;
50012;SDS011;35901;48.694;9.476;2024-01-30T03:08:24;21.37;;;15.00;;
50012;SDS011;35901;48.694;9.476;2024-01-30T03:10:50;24.07;;;15.97;;
50012;SDS011;35901;48.694;9.476;2024-01-30T03:13:16;20.80;;;15.13;;
50012;SDS011;35901;48.694;9.476;2024-01-30T03:15:41;21.43;;;16.30;;
50012;SDS011;35901;48.694;9.476;2024-01-30T03:18:07;21.33;;;15.10;;
50012;SDS011;35901;48.694;9.476;2024-01-30T03:20:33;22.60;;;15.10;;
50012;SDS011;35901;48.694;9.476;2024-01-30T03:22:59;17.83;;;12.87;;
50012;SDS011;35901;48.694;9.476;2024-01-30T03:25:25;19.70;;;14.57;;
50012;SDS011;35901;48.694;9.476;2024-01-30T03:27:51;20.47;;;14.67;;
50012;SDS011;35901;48.694;9.476;2024-01-30T03:30:17;20.93;;;15.13;;
50012;SDS011;35901;48.694;9.476;2024-01-30T03:32:42;20.97;;;14.40;;
50012;SDS011;35901;48.694;9.476;2024-01-30T03:35:09;22.03;;;15.93;;
50012;SDS011;35901;48.694;9.476;2024-01-30T03:37:34;24.27;;;15.87;;
50012;SDS011;35901;48.694;9.476;2024-01-30T03:40:01;23.27;;;15.37;;
50012;SDS011;35901;48.694;9.476;2024-01-30T03:42:27;22.60;;;15.87;;
50012;SDS011;35901;48.694;9.476;2024-01-30T03:44:52;18.57;;;14.73;;
50012;SDS011;35901;48.694;9.476;2024-01-30T03:47:18;20.80;;;15.47;;
50012;SDS011;35901;48.694;9.476;2024-01-30T03:49:45;23.43;;;17.07;;
50012;SDS011;35901;48.694;9.476;2024-01-30T03:52:11;24.38;;;18.00;;
50012;SDS011;35901;48.694;9.476;2024-01-30T03:54:36;25.50;;;17.93;;
50012;SDS011;35901;48.694;9.476;2024-01-30T03:57:02;24.50;;;17.43;;
50012;SDS011;35901;48.694;9.476;2024-01-30T03:59:28;23.63;;;16.67;;
50012;SDS011;35901;48.694;9.476;2024-01-30T04:01:54;18.80;;;14.80;;
50012;SDS011;35901;48.694;9.476;2024-01-30T04:04:19;21.10;;;14.90;;
50012;SDS011;35901;48.694;9.476;2024-01-30T04:06:45;23.73;;;16.23;;
50012;SDS011;35901;48.694;9.476;2024-01-30T04:09:12;27.13;;;18.43;;
50012;SDS011;35901;48.694;9.476;2024-01-30T04:11:38;21.83;;;17.30;;
50012;SDS011;35901;48.694;9.476;2024-01-30T04:14:04;25.77;;;18.10;;
50012;SDS011;35901;48.694;9.476;2024-01-30T04:16:30;25.13;;;17.43;;
50012;SDS011;35901;48.694;9.476;2024-01-30T04:18:56;22.40;;;16.97;;
50012;SDS011;35901;48.694;9.476;2024-01-30T04:21:22;26.93;;;19.43;;
50012;SDS011;35901;48.694;9.476;2024-01-30T04:23:48;24.33;;;17.80;;
50012;SDS011;35901;48.694;9.476;2024-01-30T04:26:14;23.60;;;17.10;;
50012;SDS011;35901;48.694;9.476;2024-01-30T04:28:41;25.10;;;16.83;;
50012;SDS011;35901;48.694;9.476;2024-01-30T04:31:07;22.93;;;16.67;;
50012;SDS011;35901;48.694;9.476;2024-01-30T04:33:32;25.97;;;17.77;;
50012;SDS011;35901;48.694;9.476;2024-01-30T04:35:58;28.27;;;18.47;;
50012;SDS011;35901;48.694;9.476;2024-01-30T04:38:24;26.23;;;18.43;;
50012;SDS011;35901;48.694;9.476;2024-01-30T04:40:49;28.73;;;18.93;;
50012;SDS011;35901;48.694;9.476;2024-01-30T04:43:15;28.73;;;18.90;;
50012;SDS011;35901;48.694;9.476;2024-01-30T04:45:41;27.07;;;19.00;;
50012;SDS011;35901;48.694;9.476;2024-01-30T04:48:07;29.47;;;18.93;;
50012;SDS011;35901;48.694;9.476;2024-01-30T04:50:32;27.63;;;17.70;;
50012;SDS011;35901;48.694;9.476;2024-01-30T04:52:58;20.70;;;15.50;;
50012;SDS011;35901;48.694;9.476;2024-01-30T04:55:26;24.77;;;17.33;;
50012;SDS011;35901;48.694;9.476;2024-01-30T04:57:52;27.40;;;18.83;;
50012;SDS011;35901;48.694;9.476;2024-01-30T05:00:17;26.80;;;18.13;;
50012;SDS011;35901;48.694;9.476;2024-01-30T05:02:43;26.43;;;18.77;;
50012;SDS011;35901;48.694;9.476;2024-01-30T05:05:09;26.13;;;18.57;;
50012;SDS011;35901;48.694;9.476;2024-01-30T05:07:35;32.20;;;20.30;;
50012;SDS011;35901;48.694;9.476;2024-01-30T05:10:01;30.30;;;19.77;;
50012;SDS011;35901;48.694;9.476;2024-01-30T05:12:28;28.07;;;19.20;;
50012;SDS011;35901;48.694;9.476;2024-01-30T05:14:54;28.77;;;19.70;;
50012;SDS011;35901;48.694;9.476;2024-01-30T05:17:20;28.20;;;19.07;;
50012;SDS011;35901;48.694;9.476;2024-01-30T05:19:45;31.30;;;19.57;;
50012;SDS011;35901;48.694;9.476;2024-01-30T05:22:11;28.73;;;19.57;;
50012;SDS011;35901;48.694;9.476;2024-01-30T05:24:40;32.63;;;20.73;;
50012;SDS011;35901;48.694;9.476;2024-01-30T05:27:07;30.23;;;19.63;;
50012;SDS011;35901;48.694;9.476;2024-01-30T05:29:33;28.43;;;19.27;;
50012;SDS011;35901;48.694;9.476;2024-01-30T05:31:59;26.17;;;18.70;;
50012;SDS011;35901;48.694;9.476;2024-01-30T05:34:24;31.47;;;19.63;;
50012;SDS011;35901;48.694;9.476;2024-01-30T05:36:50;28.33;;;18.77;;
50012;SDS011;35901;48.694;9.476;2024-01-30T05:39:16;23.20;;;15.70;;
50012;SDS011;35901;48.694;9.476;2024-01-30T05:41:41;28.40;;;19.07;;
50012;SDS011;35901;48.694;9.476;2024-01-30T05:44:07;26.90;;;18.63;;
50012;SDS011;35901;48.694;9.476;2024-01-30T05:46:33;21.43;;;15.27;;
50012;SDS011;35901;48.694;9.476;2024-01-30T05:49:00;25.53;;;17.13;;
50012;SDS011;35901;48.694;9.476;2024-01-30T05:51:26;26.20;;;17.67;;
50012;SDS011;35901;48.694;9.476;2024-01-30T05:53:53;28.00;;;19.10;;
50012;SDS011;35901;48.694;9.476;2024-01-30T05:56:19;27.27;;;18.87;;
50012;SDS011;35901;48.694;9.476;2024-01-30T05:58:44;31.63;;;21.33;;
50012;SDS011;35901;48.694;9.476;2024-01-30T06:01:10;24.17;;;16.37;;
50012;SDS011;35901;48.694;9.476;2024-01-30T06:03:36;29.03;;;19.43;;
50012;SDS011;35901;48.694;9.476;2024-01-30T06:06:02;27.63;;;19.37;;
50012;SDS011;35901;48.694;9.476;2024-01-30T06:08:28;28.80;;;19.93;;
50012;SDS011;35901;48.694;9.476;2024-01-30T06:10:53;31.50;;;21.83;;
50012;SDS011;35901;48.694;9.476;2024-01-30T06:13:19;33.37;;;23.43;;
50012;SDS011;35901;48.694;9.476;2024-01-30T06:15:45;31.47;;;19.60;;
50012;SDS011;35901;48.694;9.476;2024-01-30T06:18:10;28.47;;;20.27;;
50012;SDS011;35901;48.694;9.476;2024-01-30T06:20:36;32.27;;;22.83;;
50012;SDS011;35901;48.694;9.476;2024-01-30T06:23:02;28.97;;;20.07;;
50012;SDS011;35901;48.694;9.476;2024-01-30T06:25:28;30.07;;;20.50;;
50012;SDS011;35901;48.694;9.476;2024-01-30T06:27:55;34.27;;;22.17;;
50012;SDS011;35901;48.694;9.476;2024-01-30T06:30:21;39.43;;;22.87;;
50012;SDS011;35901;48.694;9.476;2024-01-30T06:32:47;35.97;;;22.93;;
50012;SDS011;35901;48.694;9.476;2024-01-30T06:35:12;35.60;;;23.17;;
50012;SDS011;35901;48.694;9.476;2024-01-30T06:37:38;34.57;;;22.57;;
50012;SDS011;35901;48.694;9.476;2024-01-30T06:40:04;37.17;;;23.30;;
50012;SDS011;35901;48.694;9.476;2024-01-30T06:42:30;36.63;;;24.63;;
50012;SDS011;35901;48.694;9.476;2024-01-30T06:44:56;34.83;;;23.33;;
50012;SDS011;35901;48.694;9.476;2024-01-30T06:47:22;37.10;;;24.43;;
50012;SDS011;35901;48.694;9.476;2024-01-30T06:49:47;35.57;;;23.07;;
50012;SDS011;35901;48.694;9.476;2024-01-30T06:52:13;33.00;;;21.33;;
50012;SDS011;35901;48.694;9.476;2024-01-30T06:54:39;29.83;;;19.73;;
50012;SDS011;35901;48.694;9.476;2024-01-30T06:57:05;34.13;;;22.43;;
50012;SDS011;35901;48.694;9.476;2024-01-30T06:59:34;37.50;;;22.20;;
50012;SDS011;35901;48.694;9.476;2024-01-30T07:02:00;34.80;;;22.63;;
50012;SDS011;35901;48.694;9.476;2024-01-30T07:04:25;33.53;;;22.27;;
50012;SDS011;35901;48.694;9.476;2024-01-30T07:06:51;37.67;;;22.67;;
50012;SDS011;35901;48.694;9.476;2024-01-30T07:09:18;38.60;;;22.23;;
50012;SDS011;35901;48.694;9.476;2024-01-30T07:11:44;36.60;;;23.70;;
50012;SDS011;35901;48.694;9.476;2024-01-30T07:14:10;26.37;;;17.70;;
50012;SDS011;35901;48.694;9.476;2024-01-30T07:16:35;26.53;;;19.60;;
50012;SDS011;35901;48.694;9.476;2024-01-30T07:19:01;30.80;;;20.67;;
50012;SDS011;35901;48.694;9.476;2024-01-30T07:21:27;33.93;;;22.63;;
50012;SDS011;35901;48.694;9.476;2024-01-30T07:23:56;33.00;;;22.93;;
50012;SDS011;35901;48.694;9.476;2024-01-30T07:26:23;31.70;;;21.27;;
50012;SDS011;35901;48.694;9.476;2024-01-30T07:28:51;25.80;;;20.10;;
50012;SDS011;35901;48.694;9.476;2024-01-30T07:31:16;31.93;;;22.60;;
50012;SDS011;35901;48.694;9.476;2024-01-30T07:33:46;27.43;;;20.90;;
50012;SDS011;35901;48.694;9.476;2024-01-30T07:36:30;24.37;;;19.13;;
50012;SDS011;35901;48.694;9.476;2024-01-30T07:38:56;25.13;;;19.83;;
50012;SDS011;35901;48.694;9.476;2024-01-30T07:41:21;25.40;;;19.10;;
50012;SDS011;35901;48.694;9.476;2024-01-30T07:43:48;28.37;;;20.77;;
50012;SDS011;35901;48.694;9.476;2024-01-30T07:46:13;28.70;;;21.03;;
50012;SDS011;35901;48.694;9.476;2024-01-30T07:48:39;27.00;;;19.67;;
50012;SDS011;35901;48.694;9.476;2024-01-30T07:51:05;23.27;;;19.43;;
50012;SDS011;35901;48.694;9.476;2024-01-30T07:53:30;25.07;;;19.27;;
50012;SDS011;35901;48.694;9.476;2024-01-30T07:56:01;26.50;;;18.70;;
50012;SDS011;35901;48.694;9.476;2024-01-30T07:58:27;25.50;;;16.93;;
50012;SDS011;35901;48.694;9.476;2024-01-30T08:01:11;23.17;;;16.80;;
50012;SDS011;35901;48.694;9.476;2024-01-30T08:03:49;18.40;;;14.77;;
50012;SDS011;35901;48.694;9.476;2024-01-30T08:06:15;20.33;;;15.57;;
50012;SDS011;35901;48.694;9.476;2024-01-30T08:08:42;19.27;;;15.20;;
50012;SDS011;35901;48.694;9.476;2024-01-30T08:11:08;18.27;;;13.47;;
50012;SDS011;35901;48.694;9.476;2024-01-30T08:13:33;16.83;;;13.60;;
50012;SDS011;35901;48.694;9.476;2024-01-30T08:15:59;18.10;;;14.07;;
50012;SDS011;35901;48.694;9.476;2024-01-30T08:18:25;15.57;;;12.63;;
50012;SDS011;35901;48.694;9.476;2024-01-30T08:20:50;16.63;;;12.50;;
50012;SDS011;35901;48.694;9.476;2024-01-30T08:23:16;16.03;;;12.17;;
50012;SDS011;35901;48.694;9.476;2024-01-30T08:25:42;13.57;;;11.60;;
50012;SDS011;35901;48.694;9.476;2024-01-30T08:28:08;15.07;;;12.00;;
50012;SDS011;35901;48.694;9.476;2024-01-30T08:30:33;14.30;;;11.97;;
50012;SDS011;35901;48.694;9.476;2024-01-30T08:32:59;13.33;;;11.90;;
50012;SDS011;35901;48.694;9.476;2024-01-30T08:35:25;13.43;;;11.37;;
50012;SDS011;35901;48.694;9.476;2024-01-30T08:37:51;13.50;;;11.00;;
50012;SDS011;35901;48.694;9.476;2024-01-30T08:40:17;14.17;;;11.40;;
50012;SDS011;35901;48.694;9.476;2024-01-30T08:42:43;13.50;;;11.10;;
50012;SDS011;35901;48.694;9.476;2024-01-30T08:45:09;14.40;;;12.13;;
50012;SDS011;35901;48.694;9.476;2024-01-30T08:47:35;16.37;;;12.30;;
50012;SDS011;35901;48.694;9.476;2024-01-30T08:50:00;14.27;;;12.13;;
50012;SDS011;35901;48.694;9.476;2024-01-30T08:52:26;16.97;;;13.27;;
50012;SDS011;35901;48.694;9.476;2024-01-30T08:54:52;15.00;;;13.00;;
50012;SDS011;35901;48.694;9.476;2024-01-30T08:57:17;14.67;;;12.77;;
50012;SDS011;35901;48.694;9.476;2024-01-30T08:59:43;14.87;;;12.73;;
50012;SDS011;35901;48.694;9.476;2024-01-30T09:02:12;17.33;;;13.30;;
50012;SDS011;35901;48.694;9.476;2024-01-30T09:04:41;15.03;;;11.67;;
50012;SDS011;35901;48.694;9.476;2024-01-30T09:07:08;15.93;;;12.40;;
50012;SDS011;35901;48.694;9.476;2024-01-30T09:09:34;15.93;;;11.90;;
50012;SDS011;35901;48.694;9.476;2024-01-30T09:12:00;14.40;;;11.27;;
50012;SDS011;35901;48.694;9.476;2024-01-30T09:14:32;13.40;;;10.93;;
50012;SDS011;35901;48.694;9.476;2024-01-30T09:16:58;15.30;;;11.00;;
50012;SDS011;35901;48.694;9.476;2024-01-30T09:19:24;11.53;;;10.07;;
50012;SDS011;35901;48.694;9.476;2024-01-30T09:21:50;11.97;;;10.63;;
50012;SDS011;35901;48.694;9.476;2024-01-30T09:24:19;11.03;;;9.67;;
50012;SDS011;35901;48.694;9.476;2024-01-30T09:26:44;12.47;;;10.20;;
50012;SDS011;35901;48.694;9.476;2024-01-30T09:29:10;12.60;;;10.20;;
50012;SDS011;35901;48.694;9.476;2024-01-30T09:31:36;10.83;;;9.47;;
50012;SDS011;35901;48.694;9.476;2024-01-30T09:34:01;12.30;;;10.47;;
50012;SDS011;35901;48.694;9.476;2024-01-30T09:36:27;12.93;;;10.83;;
50012;SDS011;35901;48.694;9.476;2024-01-30T09:38:53;11.07;;;9.97;;
50012;SDS011;35901;48.694;9.476;2024-01-30T09:41:18;11.53;;;10.33;;
50012;SDS011;35901;48.694;9.476;2024-01-30T09:43:46;14.17;;;10.23;;
50012;SDS011;35901;48.694;9.476;2024-01-30T09:46:16;11.27;;;9.43;;
50012;SDS011;35901;48.694;9.476;2024-01-30T09:48:48;13.43;;;10.17;;
50012;SDS011;35901;48.694;9.476;2024-01-30T09:51:15;11.77;;;10.10;;
50012;SDS011;35901;48.694;9.476;2024-01-30T09:53:42;16.67;;;15.07;;
50012;SDS011;35901;48.694;9.476;2024-01-30T09:56:09;13.63;;;10.50;;
50012;SDS011;35901;48.694;9.476;2024-01-30T09:58:36;11.20;;;9.73;;
50012;SDS011;35901;48.694;9.476;2024-01-30T10:01:02;12.87;;;10.97;;
50012;SDS011;35901;48.694;9.476;2024-01-30T10:03:27;12.17;;;10.30;;
50012;SDS011;35901;48.694;9.476;2024-01-30T10:05:53;12.53;;;9.40;;
50012;SDS011;35901;48.694;9.476;2024-01-30T10:08:21;11.93;;;9.77;;
50012;SDS011;35901;48.694;9.476;2024-01-30T10:10:47;9.70;;;8.50;;
50012;SDS011;35901;48.694;9.476;2024-01-30T10:13:13;9.97;;;8.97;;
50012;SDS011;35901;48.694;9.476;2024-01-30T10:15:38;12.47;;;9.60;;
50012;SDS011;35901;48.694;9.476;2024-01-30T10:18:05;12.63;;;9.50;;
50012;SDS011;35901;48.694;9.476;2024-01-30T10:20:32;12.90;;;10.10;;
50012;SDS011;35901;48.694;9.476;2024-01-30T10:22:58;12.07;;;10.27;;
50012;SDS011;35901;48.694;9.476;2024-01-30T10:25:25;13.07;;;9.97;;
50012;SDS011;35901;48.694;9.476;2024-01-30T10:27:54;10.87;;;9.77;;
50012;SDS011;35901;48.694;9.476;2024-01-30T10:30:23;11.20;;;9.50;;
50012;SDS011;35901;48.694;9.476;2024-01-30T10:32:49;11.70;;;9.80;;
50012;SDS011;35901;48.694;9.476;2024-01-30T10:35:16;11.27;;;9.13;;
50012;SDS011;35901;48.694;9.476;2024-01-30T10:37:48;11.57;;;10.07;;
50012;SDS011;35901;48.694;9.476;2024-01-30T10:40:29;12.37;;;10.53;;
50012;SDS011;35901;48.694;9.476;2024-01-30T10:43:03;11.33;;;10.13;;
50012;SDS011;35901;48.694;9.476;2024-01-30T10:45:43;13.70;;;10.60;;
50012;SDS011;35901;48.694;9.476;2024-01-30T10:48:19;10.90;;;9.37;;
50012;SDS011;35901;48.694;9.476;2024-01-30T10:50:55;10.13;;;9.00;;
50012;SDS011;35901;48.694;9.476;2024-01-30T10:53:24;9.77;;;7.37;;
50012;SDS011;35901;48.694;9.476;2024-01-30T10:55:51;8.60;;;7.70;;
50012;SDS011;35901;48.694;9.476;2024-01-30T10:58:19;8.20;;;7.40;;
50012;SDS011;35901;48.694;9.476;2024-01-30T11:00:45;7.17;;;6.47;;
50012;SDS011;35901;48.694;9.476;2024-01-30T11:03:11;7.17;;;6.43;;
50012;SDS011;35901;48.694;9.476;2024-01-30T11:05:40;7.00;;;6.30;;
50012;SDS011;35901;48.694;9.476;2024-01-30T11:08:12;6.93;;;6.23;;
50012;SDS011;35901;48.694;9.476;2024-01-30T11:10:48;8.33;;;6.57;;
50012;SDS011;35901;48.694;9.476;2024-01-30T11:13:14;8.07;;;6.33;;
50012;SDS011;35901;48.694;9.476;2024-01-30T11:15:41;8.53;;;7.00;;
50012;SDS011;35901;48.694;9.476;2024-01-30T11:18:06;8.70;;;6.90;;
50012;SDS011;35901;48.694;9.476;2024-01-30T11:20:32;7.67;;;6.90;;
50012;SDS011;35901;48.694;9.476;2024-01-30T11:22:58;7.83;;;7.03;;
50012;SDS011;35901;48.694;9.476;2024-01-30T11:25:27;7.70;;;6.93;;
50012;SDS011;35901;48.694;9.476;2024-01-30T11:27:53;7.97;;;6.80;;
50012;SDS011;35901;48.694;9.476;2024-01-30T11:30:30;8.57;;;6.43;;
50012;SDS011;35901;48.694;9.476;2024-01-30T11:35:39;7.73;;;6.93;;
50012;SDS011;35901;48.694;9.476;2024-01-30T11:38:07;7.53;;;6.10;;
50012;SDS011;35901;48.694;9.476;2024-01-30T11:40:34;8.43;;;6.93;;
50012;SDS011;35901;48.694;9.476;2024-01-30T11:43:01;8.27;;;7.07;;
50012;SDS011;35901;48.694;9.476;2024-01-30T11:45:28;9.87;;;6.70;;
50012;SDS011;35901;48.694;9.476;2024-01-30T11:47:54;7.30;;;6.30;;
50012;SDS011;35901;48.694;9.476;2024-01-30T11:50:20;7.53;;;6.57;;
50012;SDS011;35901;48.694;9.476;2024-01-30T11:52:47;7.47;;;6.50;;
50012;SDS011;35901;48.694;9.476;2024-01-30T11:55:13;8.73;;;7.20;;
50012;SDS011;35901;48.694;9.476;2024-01-30T11:57:39;7.53;;;6.30;;
50012;SDS011;35901;48.694;9.476;2024-01-30T12:00:05;7.53;;;6.80;;
50012;SDS011;35901;48.694;9.476;2024-01-30T12:02:39;6.87;;;6.23;;
50012;SDS011;35901;48.694;9.476;2024-01-30T12:05:05;6.53;;;5.80;;
50012;SDS011;35901;48.694;9.476;2024-01-30T12:07:31;6.87;;;6.17;;
50012;SDS011;35901;48.694;9.476;2024-01-30T12:10:01;6.80;;;6.20;;
50012;SDS011;35901;48.694;9.476;2024-01-30T12:12:28;7.10;;;6.40;;
50012;SDS011;35901;48.694;9.476;2024-01-30T12:14:55;7.23;;;6.53;;
50012;SDS011;35901;48.694;9.476;2024-01-30T12:17:28;8.23;;;7.20;;
50012;SDS011;35901;48.694;9.476;2024-01-30T12:22:29;7.70;;;6.90;;
50012;SDS011;35901;48.694;9.476;2024-01-30T12:24:55;6.80;;;6.10;;
50012;SDS011;35901;48.694;9.476;2024-01-30T12:27:20;7.80;;;7.00;;
50012;SDS011;35901;48.694;9.476;2024-01-30T12:29:46;7.67;;;5.97;;
50012;SDS011;35901;48.694;9.476;2024-01-30T12:32:22;7.03;;;6.17;;
50012;SDS011;35901;48.694;9.476;2024-01-30T12:34:50;6.50;;;5.83;;
50012;SDS011;35901;48.694;9.476;2024-01-30T12:37:19;8.30;;;6.53;;
50012;SDS011;35901;48.694;9.476;2024-01-30T12:39:48;6.30;;;5.70;;
50012;SDS011;35901;48.694;9.476;2024-01-30T12:42:14;6.93;;;6.23;;
50012;SDS011;35901;48.694;9.476;2024-01-30T12:44:40;6.93;;;5.80;;
50012;SDS011;35901;48.694;9.476;2024-01-30T12:47:08;6.17;;;5.57;;
50012;SDS011;35901;48.694;9.476;2024-01-30T12:49:48;6.50;;;5.80;;
50012;SDS011;35901;48.694;9.476;2024-01-30T12:52:15;6.53;;;5.87;;
50012;SDS011;35901;48.694;9.476;2024-01-30T12:54:41;8.60;;;7.70;;
50012;SDS011;35901;48.694;9.476;2024-01-30T12:57:07;17.17;;;11.10;;
50012;SDS011;35901;48.694;9.476;2024-01-30T12:59:33;10.57;;;7.77;;
50012;SDS011;35901;48.694;9.476;2024-01-30T13:02:00;8.03;;;6.87;;
50012;SDS011;35901;48.694;9.476;2024-01-30T13:04:26;7.90;;;7.10;;
50012;SDS011;35901;48.694;9.476;2024-01-30T13:06:52;8.87;;;6.87;;
50012;SDS011;35901;48.694;9.476;2024-01-30T13:09:18;8.77;;;7.10;;
50012;SDS011;35901;48.694;9.476;2024-01-30T13:11:44;7.73;;;7.03;;
50012;SDS011;35901;48.694;9.476;2024-01-30T13:14:10;11.80;;;7.47;;
50012;SDS011;35901;48.694;9.476;2024-01-30T13:16:36;8.57;;;7.63;;
50012;SDS011;35901;48.694;9.476;2024-01-30T13:19:01;8.50;;;7.17;;
50012;SDS011;35901;48.694;9.476;2024-01-30T13:21:28;7.47;;;6.70;;
50012;SDS011;35901;48.694;9.476;2024-01-30T13:23:53;10.27;;;7.00;;
50012;SDS011;35901;48.694;9.476;2024-01-30T13:26:22;7.67;;;6.87;;
50012;SDS011;35901;48.694;9.476;2024-01-30T13:28:48;9.10;;;7.87;;
50012;SDS011;35901;48.694;9.476;2024-01-30T13:31:14;8.67;;;7.77;;
50012;SDS011;35901;48.694;9.476;2024-01-30T13:33:40;8.20;;;7.20;;
50012;SDS011;35901;48.694;9.476;2024-01-30T13:36:06;8.70;;;7.40;;
50012;SDS011;35901;48.694;9.476;2024-01-30T13:38:33;8.80;;;7.30;;
50012;SDS011;35901;48.694;9.476;2024-01-30T13:40:59;9.57;;;7.70;;
50012;SDS011;35901;48.694;9.476;2024-01-30T13:43:25;8.63;;;7.50;;
50012;SDS011;35901;48.694;9.476;2024-01-30T13:45:51;9.60;;;7.20;;
50012;SDS011;35901;48.694;9.476;2024-01-30T13:48:17;10.57;;;6.93;;
50012;SDS011;35901;48.694;9.476;2024-01-30T13:50:43;10.27;;;7.50;;
50012;SDS011;35901;48.694;9.476;2024-01-30T13:53:08;7.97;;;7.17;;
50012;SDS011;35901;48.694;9.476;2024-01-30T13:55:34;7.90;;;6.93;;
50012;SDS011;35901;48.694;9.476;2024-01-30T13:58:00;10.90;;;7.60;;
50012;SDS011;35901;48.694;9.476;2024-01-30T14:00:28;7.10;;;6.40;;
50012;SDS011;35901;48.694;9.476;2024-01-30T14:02:54;9.27;;;7.27;;
50012;SDS011;35901;48.694;9.476;2024-01-30T14:05:20;8.10;;;6.93;;
50012;SDS011;35901;48.694;9.476;2024-01-30T14:07:47;9.53;;;7.07;;
50012;SDS011;35901;48.694;9.476;2024-01-30T14:10:13;8.00;;;7.20;;
50012;SDS011;35901;48.694;9.476;2024-01-30T14:12:41;8.73;;;7.13;;
50012;SDS011;35901;48.694;9.476;2024-01-30T14:15:07;10.13;;;7.63;;
50012;SDS011;35901;48.694;9.476;2024-01-30T14:17:38;8.13;;;7.33;;
50012;SDS011;35901;48.694;9.476;2024-01-30T14:20:11;8.07;;;7.27;;
50012;SDS011;35901;48.694;9.476;2024-01-30T14:22:37;8.70;;;6.23;;
50012;SDS011;35901;48.694;9.476;2024-01-30T14:25:03;8.90;;;6.90;;
50012;SDS011;35901;48.694;9.476;2024-01-30T14:27:30;9.97;;;6.20;;
50012;SDS011;35901;48.694;9.476;2024-01-30T14:29:57;7.83;;;6.30;;